Terminal Aerodrome Forecast
Issued by NWS

Home | Current Version | Previous Version | Text Only | Print | Product List | Glossary On
Versions: 1 2 3 4 5 6 7 8 9 10 11 12
000
FTAK31 PAJN 051724
TAFASI
TAF
PASI 051724Z 0518/0618 11008KT P6SM VCSH SCT020 OVC035
     FM052100 12012KT P6SM VCSH SCT020 OVC040
     FM060300 14012G22KT P6SM -RA SCT025 OVC035
     FM060700 14015G25KT 5SM RA BR SCT008 BKN015 OVC025
      WS020/17040KT
     FM061600 19014G21KT 6SM RA BR SCT008 BKN015 OVC025
      WS020/20035KT=

USA.gov is the U.S. government's official web portal to all federal, state and local government web resources and services.